Currently 55°F in Riverside (Orangecrest), California, USA
55°F
61°F / 55°F
calm
0.00"
Wednesday, April 25, 2018 3:41 AM PDT

Riverside (Orangecrest), California Weather Summary
Last 36 Hours

Temperature Winds Hourly Humidity Dewpoint
Time Report Norm Report Norm Max Gusts Precip. Rpt. Norm Rpt. Norm Pressure
1,3Wed 03:41 AM  54.5°F  56°F  calm  3 mph  6 mph  0.00"  72%  59%  45°F  41°F  30.06"
Wed 03:00 AM  56.0°F  57°F  6 mph N  3 mph  9 mph  0.00"  67%  57%  45°F  41°F  30.05"
Wed 02:00 AM  56.5°F  58°F  2 mph N  3 mph  7 mph  0.00"  65%  56%  44°F  41°F  30.05"
Wed 01:00 AM  58.2°F  58°F  3 mph N  2 mph  9 mph  0.00"  55%  54%  41°F  41°F  30.06"
2Wed 12:00 AM  61.3°F  60°F  3 mph N  2 mph  5 mph  0.00"  44%  50%  39°F  40°F  30.05"
Tue 11:00 PM  62.9°F  61°F  2 mph N  3 mph  5 mph  0.00"  48%  47%  42°F  39°F  30.04"
Tue 10:00 PM  63.9°F  62°F  calm  3 mph  7 mph  0.00"  40%  44%  38°F  39°F  30.04"
Tue 09:00 PM  65.9°F  64°F  4 mph N  4 mph  10 mph  0.00"  33%  41%  35°F  38°F  30.03"
Tue 08:00 PM  68.3°F  66°F  4 mph N  4 mph  12 mph  0.00"  18%  38%  21°F  38°F  30.01"
Tue 07:00 PM  70.9°F  69°F  6 mph N  6 mph  16 mph  0.00"  19%  32%  25°F  36°F  30.00"
Tue 06:00 PM  73.9°F  71°F  9 mph N  8 mph  18 mph  0.00"  6%  29%  0°F  36°F  29.99"
Tue 05:00 PM  76.1°F  73°F  7 mph NE  7 mph  20 mph  0.00"  9%  27%  12°F  35°F  29.99"
Tue 04:00 PM  78.2°F  73°F  9 mph N  8 mph  17 mph  0.00"  12%  27%  20°F  36°F  29.98"
Tue 03:00 PM  79.9°F  73°F  6 mph N  8 mph  16 mph  0.00"  7%  26%  9°F  35°F  30.00"
Tue 02:00 PM  78.7°F  73°F  7 mph N  7 mph  15 mph  0.00"  12%  27%  19°F  36°F  30.01"
Tue 01:00 PM  77.2°F  72°F  6 mph N  7 mph  15 mph  0.00"  15%  27%  24°F  35°F  30.03"
Tue 12:00 PM  76.2°F  70°F  7 mph W  7 mph  10 mph  0.00"  15%  30%  23°F  36°F  30.03"
Tue 11:00 AM  77.3°F  68°F  calm  4 mph  7 mph  0.00"  14%  33%  23°F  37°F  30.03"
Tue 10:00 AM  73.7°F  65°F  calm  4 mph  4 mph  0.00"  18%  40%  26°F  39°F  30.03"
Tue 09:00 AM  68.1°F  61°F  3 mph N  4 mph  3 mph  0.00"  30%  48%  34°F  41°F  30.03"
Tue 08:00 AM  64.4°F  58°F  calm  4 mph  2 mph  0.00"  39%  55%  38°F  41°F  30.04"
Tue 07:00 AM  60.0°F  54°F  calm  2 mph  none  0.00"  53%  65%  42°F  42°F  30.03"
Tue 06:00 AM  57.4°F  54°F  calm  2 mph  none  0.00"  46%  64%  36°F  42°F  30.01"
Tue 05:00 AM  58.8°F  55°F  calm  2 mph  4 mph  0.00"  39%  64%  33°F  42°F  30.00"
Tue 04:00 AM  58.7°F  55°F  3 mph N  2 mph  2 mph  0.00"  40%  65%  34°F  43°F  30.00"
Tue 03:00 AM  60.3°F  55°F  1 mph N  2 mph  5 mph  0.00"  46%  63%  39°F  43°F  30.00"
Tue 02:00 AM  60.9°F  56°F  4 mph N  4 mph  5 mph  0.00"  44%  61%  38°F  43°F  30.01"
Tue 01:00 AM  62.7°F  57°F  calm  2 mph  2 mph  0.00"  38%  60%  36°F  43°F  30.02"
Tue 12:00 AM  63.2°F  58°F  calm  3 mph  5 mph  0.00"  39%  56%  37°F  42°F  30.03"
Mon 11:00 PM  63.7°F  59°F  2 mph N  3 mph  4 mph  0.00"  35%  55%  34°F  42°F  30.03"
Mon 10:00 PM  65.0°F  61°F  1 mph N  3 mph  9 mph  0.00"  32%  51%  33°F  42°F  30.03"
Mon 09:00 PM  66.8°F  62°F  4 mph N  3 mph  10 mph  0.00"  20%  48%  23°F  42°F  30.01"
Mon 08:00 PM  69.4°F  64°F  4 mph N  4 mph  13 mph  0.00"  28%  44%  34°F  41°F  29.99"
Mon 07:00 PM  74.0°F  66°F  5 mph NW  6 mph  17 mph  0.00"  12%  40%  15°F  40°F  29.98"
Mon 06:00 PM  76.2°F  68°F  7 mph N  7 mph  19 mph  0.00"  15%  37%  23°F  40°F  29.97"
Mon 05:00 PM  78.8°F  70°F  9 mph NW  6 mph  18 mph  0.00"  14%  34%  24°F  40°F  29.97"
Mon 04:00 PM  80.6°F  71°F  7 mph NW  7 mph  17 mph  0.00"  12%  35%  22°F  41°F  29.96"

  1. Current weather data. No green row appears if the current weather data is also the high or low for the current day.
  2. High temperature for the current day.
  3. Low temperature for the current day.

The Riverside (Orangecrest), California weather pages are a service of WeatherCurrents.
Copyright ©Wed Apr 25 03:41:38 PDT 2018  WeatherCurrents. All rights reserved. - Submit questions and comments - Privacy Policy

This page automatically refreshes every 10 minutes.